sensor_id;sensor_type;location;lat;lon;timestamp;P1;durP1;ratioP1;P2;durP2;ratioP2
18449;SDS011;9354;50.194;7.690;2023-06-26T00:02:04;6.90;;;4.73;;
18449;SDS011;9354;50.194;7.690;2023-06-26T00:04:31;7.87;;;4.90;;
18449;SDS011;9354;50.194;7.690;2023-06-26T00:06:59;6.97;;;4.83;;
18449;SDS011;9354;50.194;7.690;2023-06-26T00:09:26;8.17;;;4.80;;
18449;SDS011;9354;50.194;7.690;2023-06-26T00:11:54;7.70;;;5.00;;
18449;SDS011;9354;50.194;7.690;2023-06-26T00:14:23;7.67;;;5.13;;
18449;SDS011;9354;50.194;7.690;2023-06-26T00:16:51;9.97;;;5.70;;
18449;SDS011;9354;50.194;7.690;2023-06-26T00:19:18;7.03;;;4.73;;
18449;SDS011;9354;50.194;7.690;2023-06-26T00:21:45;7.87;;;5.73;;
18449;SDS011;9354;50.194;7.690;2023-06-26T00:24:13;8.13;;;4.77;;
18449;SDS011;9354;50.194;7.690;2023-06-26T00:26:41;8.70;;;5.23;;
18449;SDS011;9354;50.194;7.690;2023-06-26T00:29:08;8.23;;;5.30;;
18449;SDS011;9354;50.194;7.690;2023-06-26T00:31:37;8.23;;;5.03;;
18449;SDS011;9354;50.194;7.690;2023-06-26T00:34:07;8.20;;;5.13;;
18449;SDS011;9354;50.194;7.690;2023-06-26T00:36:34;8.33;;;5.13;;
18449;SDS011;9354;50.194;7.690;2023-06-26T00:39:01;8.93;;;5.40;;
18449;SDS011;9354;50.194;7.690;2023-06-26T00:41:31;8.03;;;5.03;;
18449;SDS011;9354;50.194;7.690;2023-06-26T00:43:58;8.63;;;5.03;;
18449;SDS011;9354;50.194;7.690;2023-06-26T00:46:25;9.73;;;5.10;;
18449;SDS011;9354;50.194;7.690;2023-06-26T00:48:54;7.40;;;4.97;;
18449;SDS011;9354;50.194;7.690;2023-06-26T00:51:25;6.97;;;4.97;;
18449;SDS011;9354;50.194;7.690;2023-06-26T00:53:52;9.30;;;5.20;;
18449;SDS011;9354;50.194;7.690;2023-06-26T00:56:20;7.97;;;4.87;;
18449;SDS011;9354;50.194;7.690;2023-06-26T00:58:48;9.10;;;5.27;;
18449;SDS011;9354;50.194;7.690;2023-06-26T01:01:15;7.13;;;5.07;;
18449;SDS011;9354;50.194;7.690;2023-06-26T01:03:43;8.07;;;5.03;;
18449;SDS011;9354;50.194;7.690;2023-06-26T01:06:13;7.07;;;4.97;;
18449;SDS011;9354;50.194;7.690;2023-06-26T01:08:41;11.33;;;5.33;;
18449;SDS011;9354;50.194;7.690;2023-06-26T01:11:09;9.47;;;5.47;;
18449;SDS011;9354;50.194;7.690;2023-06-26T01:13:37;9.03;;;5.47;;
18449;SDS011;9354;50.194;7.690;2023-06-26T01:16:06;7.43;;;5.00;;
18449;SDS011;9354;50.194;7.690;2023-06-26T01:18:35;8.40;;;4.77;;
18449;SDS011;9354;50.194;7.690;2023-06-26T01:21:08;9.57;;;4.90;;
18449;SDS011;9354;50.194;7.690;2023-06-26T01:23:42;9.27;;;5.20;;
18449;SDS011;9354;50.194;7.690;2023-06-26T01:26:23;7.67;;;4.63;;
18449;SDS011;9354;50.194;7.690;2023-06-26T01:28:52;10.00;;;4.93;;
18449;SDS011;9354;50.194;7.690;2023-06-26T01:31:22;12.93;;;5.40;;
18449;SDS011;9354;50.194;7.690;2023-06-26T01:33:50;8.40;;;5.17;;
18449;SDS011;9354;50.194;7.690;2023-06-26T01:36:18;8.40;;;4.77;;
18449;SDS011;9354;50.194;7.690;2023-06-26T01:38:45;9.63;;;5.40;;
18449;SDS011;9354;50.194;7.690;2023-06-26T01:41:13;11.57;;;4.97;;
18449;SDS011;9354;50.194;7.690;2023-06-26T01:43:43;8.50;;;5.50;;
18449;SDS011;9354;50.194;7.690;2023-06-26T01:46:25;10.00;;;5.07;;
18449;SDS011;9354;50.194;7.690;2023-06-26T01:48:58;9.10;;;4.63;;
18449;SDS011;9354;50.194;7.690;2023-06-26T01:51:30;8.10;;;4.93;;
18449;SDS011;9354;50.194;7.690;2023-06-26T01:54:02;8.70;;;5.27;;
18449;SDS011;9354;50.194;7.690;2023-06-26T01:56:30;8.03;;;5.27;;
18449;SDS011;9354;50.194;7.690;2023-06-26T01:58:59;12.50;;;5.23;;
18449;SDS011;9354;50.194;7.690;2023-06-26T02:01:31;9.00;;;4.83;;
18449;SDS011;9354;50.194;7.690;2023-06-26T02:03:59;7.67;;;5.00;;
18449;SDS011;9354;50.194;7.690;2023-06-26T02:06:26;8.07;;;5.23;;
18449;SDS011;9354;50.194;7.690;2023-06-26T02:08:53;8.60;;;4.93;;
18449;SDS011;9354;50.194;7.690;2023-06-26T02:11:22;7.93;;;5.00;;
18449;SDS011;9354;50.194;7.690;2023-06-26T02:13:49;7.33;;;5.17;;
18449;SDS011;9354;50.194;7.690;2023-06-26T02:16:18;8.90;;;4.87;;
18449;SDS011;9354;50.194;7.690;2023-06-26T02:18:45;10.00;;;5.07;;
18449;SDS011;9354;50.194;7.690;2023-06-26T02:21:13;7.27;;;4.87;;
18449;SDS011;9354;50.194;7.690;2023-06-26T02:23:40;7.57;;;5.10;;
18449;SDS011;9354;50.194;7.690;2023-06-26T02:26:07;9.20;;;4.93;;
18449;SDS011;9354;50.194;7.690;2023-06-26T02:28:35;8.70;;;5.00;;
18449;SDS011;9354;50.194;7.690;2023-06-26T02:31:02;8.20;;;5.10;;
18449;SDS011;9354;50.194;7.690;2023-06-26T02:33:31;9.17;;;5.07;;
18449;SDS011;9354;50.194;7.690;2023-06-26T02:35:59;8.93;;;5.13;;
18449;SDS011;9354;50.194;7.690;2023-06-26T02:38:26;13.27;;;5.53;;
18449;SDS011;9354;50.194;7.690;2023-06-26T02:40:53;7.70;;;4.80;;
18449;SDS011;9354;50.194;7.690;2023-06-26T02:43:21;8.40;;;5.10;;
18449;SDS011;9354;50.194;7.690;2023-06-26T02:45:48;9.17;;;5.00;;
18449;SDS011;9354;50.194;7.690;2023-06-26T02:48:15;9.20;;;5.40;;
18449;SDS011;9354;50.194;7.690;2023-06-26T02:50:44;7.73;;;5.00;;
18449;SDS011;9354;50.194;7.690;2023-06-26T02:53:12;9.00;;;5.13;;
18449;SDS011;9354;50.194;7.690;2023-06-26T02:55:39;8.10;;;5.00;;
18449;SDS011;9354;50.194;7.690;2023-06-26T02:58:06;7.47;;;5.03;;
18449;SDS011;9354;50.194;7.690;2023-06-26T03:00:34;9.27;;;5.00;;
18449;SDS011;9354;50.194;7.690;2023-06-26T03:03:06;9.33;;;4.73;;
18449;SDS011;9354;50.194;7.690;2023-06-26T03:05:34;8.63;;;5.00;;
18449;SDS011;9354;50.194;7.690;2023-06-26T03:08:03;9.60;;;5.10;;
18449;SDS011;9354;50.194;7.690;2023-06-26T03:10:31;10.17;;;5.50;;
18449;SDS011;9354;50.194;7.690;2023-06-26T03:12:58;10.57;;;5.73;;
18449;SDS011;9354;50.194;7.690;2023-06-26T03:15:26;7.63;;;5.23;;
18449;SDS011;9354;50.194;7.690;2023-06-26T03:17:53;10.43;;;5.47;;
18449;SDS011;9354;50.194;7.690;2023-06-26T03:20:20;12.17;;;5.97;;
18449;SDS011;9354;50.194;7.690;2023-06-26T03:22:48;8.80;;;5.63;;
18449;SDS011;9354;50.194;7.690;2023-06-26T03:25:17;8.53;;;4.77;;
18449;SDS011;9354;50.194;7.690;2023-06-26T03:27:44;10.73;;;5.43;;
18449;SDS011;9354;50.194;7.690;2023-06-26T03:30:11;10.60;;;5.70;;
18449;SDS011;9354;50.194;7.690;2023-06-26T03:32:39;11.73;;;5.13;;
18449;SDS011;9354;50.194;7.690;2023-06-26T03:35:07;8.20;;;5.37;;
18449;SDS011;9354;50.194;7.690;2023-06-26T03:37:35;8.37;;;5.53;;
18449;SDS011;9354;50.194;7.690;2023-06-26T03:40:02;9.27;;;5.33;;
18449;SDS011;9354;50.194;7.690;2023-06-26T03:42:32;8.63;;;5.27;;
18449;SDS011;9354;50.194;7.690;2023-06-26T03:44:59;10.07;;;5.23;;
18449;SDS011;9354;50.194;7.690;2023-06-26T03:47:27;9.50;;;5.30;;
18449;SDS011;9354;50.194;7.690;2023-06-26T03:49:54;9.70;;;5.20;;
18449;SDS011;9354;50.194;7.690;2023-06-26T03:52:21;13.80;;;5.60;;
18449;SDS011;9354;50.194;7.690;2023-06-26T03:54:49;12.40;;;5.13;;
18449;SDS011;9354;50.194;7.690;2023-06-26T03:57:16;9.13;;;5.27;;
18449;SDS011;9354;50.194;7.690;2023-06-26T03:59:45;11.67;;;5.00;;
18449;SDS011;9354;50.194;7.690;2023-06-26T04:02:12;10.07;;;5.83;;
18449;SDS011;9354;50.194;7.690;2023-06-26T04:04:40;8.43;;;5.20;;
18449;SDS011;9354;50.194;7.690;2023-06-26T04:07:07;8.27;;;5.20;;
18449;SDS011;9354;50.194;7.690;2023-06-26T04:09:34;10.87;;;5.40;;
18449;SDS011;9354;50.194;7.690;2023-06-26T04:12:02;10.43;;;5.67;;
18449;SDS011;9354;50.194;7.690;2023-06-26T04:14:30;10.23;;;5.93;;
18449;SDS011;9354;50.194;7.690;2023-06-26T04:16:59;8.17;;;5.37;;
18449;SDS011;9354;50.194;7.690;2023-06-26T04:19:27;7.23;;;4.63;;
18449;SDS011;9354;50.194;7.690;2023-06-26T04:21:54;8.17;;;5.13;;
18449;SDS011;9354;50.194;7.690;2023-06-26T04:24:22;9.17;;;5.50;;
18449;SDS011;9354;50.194;7.690;2023-06-26T04:26:49;9.10;;;5.23;;
18449;SDS011;9354;50.194;7.690;2023-06-26T04:29:17;10.40;;;5.10;;
18449;SDS011;9354;50.194;7.690;2023-06-26T04:31:44;9.27;;;4.80;;
18449;SDS011;9354;50.194;7.690;2023-06-26T04:34:14;10.83;;;5.67;;
18449;SDS011;9354;50.194;7.690;2023-06-26T04:36:41;8.30;;;5.17;;
18449;SDS011;9354;50.194;7.690;2023-06-26T04:39:11;10.50;;;5.20;;
18449;SDS011;9354;50.194;7.690;2023-06-26T04:41:40;9.30;;;5.30;;
18449;SDS011;9354;50.194;7.690;2023-06-26T04:44:07;7.97;;;4.63;;
18449;SDS011;9354;50.194;7.690;2023-06-26T04:46:34;10.03;;;5.37;;
18449;SDS011;9354;50.194;7.690;2023-06-26T04:49:06;10.67;;;5.63;;
18449;SDS011;9354;50.194;7.690;2023-06-26T04:51:35;8.40;;;5.43;;
18449;SDS011;9354;50.194;7.690;2023-06-26T04:54:06;7.73;;;5.40;;
18449;SDS011;9354;50.194;7.690;2023-06-26T04:56:33;9.23;;;4.90;;
18449;SDS011;9354;50.194;7.690;2023-06-26T04:59:01;10.00;;;4.93;;
18449;SDS011;9354;50.194;7.690;2023-06-26T05:01:29;8.97;;;5.37;;
18449;SDS011;9354;50.194;7.690;2023-06-26T05:03:57;9.13;;;5.23;;
18449;SDS011;9354;50.194;7.690;2023-06-26T05:06:25;8.30;;;5.27;;
18449;SDS011;9354;50.194;7.690;2023-06-26T05:08:53;8.07;;;5.20;;
18449;SDS011;9354;50.194;7.690;2023-06-26T05:11:21;8.57;;;5.27;;
18449;SDS011;9354;50.194;7.690;2023-06-26T05:13:48;9.00;;;5.23;;
18449;SDS011;9354;50.194;7.690;2023-06-26T05:16:15;10.60;;;5.20;;
18449;SDS011;9354;50.194;7.690;2023-06-26T05:18:43;7.20;;;5.00;;
18449;SDS011;9354;50.194;7.690;2023-06-26T05:21:10;7.90;;;5.03;;
18449;SDS011;9354;50.194;7.690;2023-06-26T05:23:38;8.20;;;5.43;;
18449;SDS011;9354;50.194;7.690;2023-06-26T05:26:08;8.53;;;5.30;;
18449;SDS011;9354;50.194;7.690;2023-06-26T05:28:36;7.97;;;4.50;;
18449;SDS011;9354;50.194;7.690;2023-06-26T05:31:04;8.93;;;5.03;;
18449;SDS011;9354;50.194;7.690;2023-06-26T05:33:32;7.73;;;5.50;;
18449;SDS011;9354;50.194;7.690;2023-06-26T05:36:02;7.07;;;5.03;;
18449;SDS011;9354;50.194;7.690;2023-06-26T05:38:31;8.90;;;6.13;;
18449;SDS011;9354;50.194;7.690;2023-06-26T05:40:59;9.10;;;5.20;;
18449;SDS011;9354;50.194;7.690;2023-06-26T05:43:28;8.90;;;5.20;;
18449;SDS011;9354;50.194;7.690;2023-06-26T05:45:56;8.83;;;5.03;;
18449;SDS011;9354;50.194;7.690;2023-06-26T05:48:24;9.07;;;5.13;;
18449;SDS011;9354;50.194;7.690;2023-06-26T05:50:51;8.00;;;5.20;;
18449;SDS011;9354;50.194;7.690;2023-06-26T05:53:19;7.90;;;4.87;;
18449;SDS011;9354;50.194;7.690;2023-06-26T05:55:47;8.27;;;4.83;;
18449;SDS011;9354;50.194;7.690;2023-06-26T05:58:15;6.97;;;4.77;;
18449;SDS011;9354;50.194;7.690;2023-06-26T06:00:45;6.63;;;4.63;;
18449;SDS011;9354;50.194;7.690;2023-06-26T06:03:13;8.33;;;4.90;;
18449;SDS011;9354;50.194;7.690;2023-06-26T06:05:40;10.60;;;5.03;;
18449;SDS011;9354;50.194;7.690;2023-06-26T06:08:07;9.63;;;4.90;;
18449;SDS011;9354;50.194;7.690;2023-06-26T06:10:35;10.53;;;4.73;;
18449;SDS011;9354;50.194;7.690;2023-06-26T06:13:02;7.73;;;5.27;;
18449;SDS011;9354;50.194;7.690;2023-06-26T06:15:30;10.20;;;5.00;;
18449;SDS011;9354;50.194;7.690;2023-06-26T06:17:58;7.63;;;4.97;;
18449;SDS011;9354;50.194;7.690;2023-06-26T06:20:26;7.40;;;4.37;;
18449;SDS011;9354;50.194;7.690;2023-06-26T06:22:53;6.73;;;4.40;;
18449;SDS011;9354;50.194;7.690;2023-06-26T06:25:20;6.90;;;4.57;;
18449;SDS011;9354;50.194;7.690;2023-06-26T06:27:48;10.40;;;5.10;;
18449;SDS011;9354;50.194;7.690;2023-06-26T06:30:15;7.33;;;4.33;;
18449;SDS011;9354;50.194;7.690;2023-06-26T06:32:42;7.13;;;4.53;;
18449;SDS011;9354;50.194;7.690;2023-06-26T06:35:11;9.73;;;4.93;;
18449;SDS011;9354;50.194;7.690;2023-06-26T06:37:39;7.17;;;4.30;;
18449;SDS011;9354;50.194;7.690;2023-06-26T06:40:08;7.83;;;4.43;;
18449;SDS011;9354;50.194;7.690;2023-06-26T06:42:37;8.10;;;4.60;;
18449;SDS011;9354;50.194;7.690;2023-06-26T06:45:04;7.93;;;4.67;;
18449;SDS011;9354;50.194;7.690;2023-06-26T06:47:33;10.77;;;4.90;;
18449;SDS011;9354;50.194;7.690;2023-06-26T06:50:00;7.87;;;4.70;;
18449;SDS011;9354;50.194;7.690;2023-06-26T06:52:35;8.03;;;4.57;;
18449;SDS011;9354;50.194;7.690;2023-06-26T06:55:04;11.07;;;4.50;;
18449;SDS011;9354;50.194;7.690;2023-06-26T06:57:34;7.30;;;4.50;;
18449;SDS011;9354;50.194;7.690;2023-06-26T07:00:03;7.13;;;4.80;;
18449;SDS011;9354;50.194;7.690;2023-06-26T07:02:35;6.20;;;4.53;;
18449;SDS011;9354;50.194;7.690;2023-06-26T07:05:03;8.17;;;4.53;;
18449;SDS011;9354;50.194;7.690;2023-06-26T07:07:31;7.40;;;4.40;;
18449;SDS011;9354;50.194;7.690;2023-06-26T07:10:01;5.63;;;4.27;;
18449;SDS011;9354;50.194;7.690;2023-06-26T07:12:30;6.57;;;4.63;;
18449;SDS011;9354;50.194;7.690;2023-06-26T07:14:57;6.93;;;4.70;;
18449;SDS011;9354;50.194;7.690;2023-06-26T07:17:25;8.53;;;4.90;;
18449;SDS011;9354;50.194;7.690;2023-06-26T07:19:52;7.27;;;5.03;;
18449;SDS011;9354;50.194;7.690;2023-06-26T07:22:19;14.00;;;4.93;;
18449;SDS011;9354;50.194;7.690;2023-06-26T07:24:47;7.43;;;4.83;;
18449;SDS011;9354;50.194;7.690;2023-06-26T07:27:16;8.23;;;5.23;;
18449;SDS011;9354;50.194;7.690;2023-06-26T07:29:44;8.90;;;5.03;;
18449;SDS011;9354;50.194;7.690;2023-06-26T07:32:12;7.57;;;4.80;;
18449;SDS011;9354;50.194;7.690;2023-06-26T07:34:39;6.37;;;4.67;;
18449;SDS011;9354;50.194;7.690;2023-06-26T07:37:07;6.80;;;4.20;;
18449;SDS011;9354;50.194;7.690;2023-06-26T07:39:34;9.27;;;4.60;;
18449;SDS011;9354;50.194;7.690;2023-06-26T07:42:02;6.20;;;4.50;;
18449;SDS011;9354;50.194;7.690;2023-06-26T07:44:30;6.60;;;4.80;;
18449;SDS011;9354;50.194;7.690;2023-06-26T07:46:58;9.10;;;5.00;;
18449;SDS011;9354;50.194;7.690;2023-06-26T07:49:25;9.00;;;4.83;;
18449;SDS011;9354;50.194;7.690;2023-06-26T07:51:52;6.20;;;4.80;;
18449;SDS011;9354;50.194;7.690;2023-06-26T07:54:20;8.67;;;5.03;;
18449;SDS011;9354;50.194;7.690;2023-06-26T07:56:54;7.40;;;4.87;;
18449;SDS011;9354;50.194;7.690;2023-06-26T07:59:22;8.50;;;4.77;;
18449;SDS011;9354;50.194;7.690;2023-06-26T08:01:52;8.77;;;4.77;;
18449;SDS011;9354;50.194;7.690;2023-06-26T08:04:21;7.33;;;5.27;;
18449;SDS011;9354;50.194;7.690;2023-06-26T08:06:50;8.67;;;5.27;;
18449;SDS011;9354;50.194;7.690;2023-06-26T08:09:19;10.23;;;5.20;;
18449;SDS011;9354;50.194;7.690;2023-06-26T08:11:47;7.37;;;5.00;;
18449;SDS011;9354;50.194;7.690;2023-06-26T08:14:15;9.57;;;5.30;;
18449;SDS011;9354;50.194;7.690;2023-06-26T08:16:43;8.50;;;5.47;;
18449;SDS011;9354;50.194;7.690;2023-06-26T08:19:13;7.87;;;5.23;;
18449;SDS011;9354;50.194;7.690;2023-06-26T08:21:41;9.17;;;4.87;;
18449;SDS011;9354;50.194;7.690;2023-06-26T08:24:08;8.07;;;4.50;;
18449;SDS011;9354;50.194;7.690;2023-06-26T08:26:36;9.47;;;5.37;;
18449;SDS011;9354;50.194;7.690;2023-06-26T08:29:03;9.17;;;4.87;;
18449;SDS011;9354;50.194;7.690;2023-06-26T08:31:33;9.50;;;4.53;;
18449;SDS011;9354;50.194;7.690;2023-06-26T08:34:01;6.53;;;4.50;;
18449;SDS011;9354;50.194;7.690;2023-06-26T08:36:30;7.60;;;4.80;;
18449;SDS011;9354;50.194;7.690;2023-06-26T08:38:58;11.20;;;4.83;;
18449;SDS011;9354;50.194;7.690;2023-06-26T08:41:26;12.00;;;5.30;;
18449;SDS011;9354;50.194;7.690;2023-06-26T08:43:53;12.80;;;5.20;;
18449;SDS011;9354;50.194;7.690;2023-06-26T08:46:21;7.03;;;4.80;;
18449;SDS011;9354;50.194;7.690;2023-06-26T08:48:49;7.33;;;4.97;;
18449;SDS011;9354;50.194;7.690;2023-06-26T08:51:21;8.33;;;4.57;;
18449;SDS011;9354;50.194;7.690;2023-06-26T08:53:55;8.70;;;4.50;;
18449;SDS011;9354;50.194;7.690;2023-06-26T08:56:24;11.17;;;5.13;;
18449;SDS011;9354;50.194;7.690;2023-06-26T08:58:54;10.13;;;5.10;;
18449;SDS011;9354;50.194;7.690;2023-06-26T09:01:22;8.13;;;4.93;;
18449;SDS011;9354;50.194;7.690;2023-06-26T09:03:50;6.17;;;4.30;;
18449;SDS011;9354;50.194;7.690;2023-06-26T09:06:18;13.53;;;4.90;;
18449;SDS011;9354;50.194;7.690;2023-06-26T09:08:45;13.87;;;5.37;;
18449;SDS011;9354;50.194;7.690;2023-06-26T09:11:14;10.80;;;5.27;;
18449;SDS011;9354;50.194;7.690;2023-06-26T09:13:42;8.10;;;4.90;;
18449;SDS011;9354;50.194;7.690;2023-06-26T09:16:10;9.50;;;4.90;;
18449;SDS011;9354;50.194;7.690;2023-06-26T09:18:38;10.30;;;5.10;;
18449;SDS011;9354;50.194;7.690;2023-06-26T09:21:07;11.53;;;5.37;;
18449;SDS011;9354;50.194;7.690;2023-06-26T09:23:35;7.67;;;4.80;;
18449;SDS011;9354;50.194;7.690;2023-06-26T09:26:03;9.67;;;5.10;;
18449;SDS011;9354;50.194;7.690;2023-06-26T09:28:33;12.40;;;5.20;;
18449;SDS011;9354;50.194;7.690;2023-06-26T09:31:01;9.00;;;4.82;;
18449;SDS011;9354;50.194;7.690;2023-06-26T09:33:33;7.95;;;4.50;;
18449;SDS011;9354;50.194;7.690;2023-06-26T09:36:04;10.68;;;4.78;;
18449;SDS011;9354;50.194;7.690;2023-06-26T09:38:35;8.77;;;4.60;;
18449;SDS011;9354;50.194;7.690;2023-06-26T09:41:03;9.25;;;4.82;;
18449;SDS011;9354;50.194;7.690;2023-06-26T09:43:30;8.38;;;4.35;;
18449;SDS011;9354;50.194;7.690;2023-06-26T09:45:59;13.65;;;4.82;;
18449;SDS011;9354;50.194;7.690;2023-06-26T09:48:27;9.53;;;4.37;;
18449;SDS011;9354;50.194;7.690;2023-06-26T09:50:55;7.20;;;4.30;;
18449;SDS011;9354;50.194;7.690;2023-06-26T09:53:22;8.38;;;4.07;;
18449;SDS011;9354;50.194;7.690;2023-06-26T09:55:52;8.52;;;4.60;;
18449;SDS011;9354;50.194;7.690;2023-06-26T09:58:19;12.50;;;4.80;;
18449;SDS011;9354;50.194;7.690;2023-06-26T10:00:48;7.32;;;4.20;;
18449;SDS011;9354;50.194;7.690;2023-06-26T10:03:17;6.63;;;3.88;;
18449;SDS011;9354;50.194;7.690;2023-06-26T10:05:44;8.68;;;4.10;;
18449;SDS011;9354;50.194;7.690;2023-06-26T10:08:13;8.23;;;4.22;;
18449;SDS011;9354;50.194;7.690;2023-06-26T10:10:41;7.43;;;4.35;;
18449;SDS011;9354;50.194;7.690;2023-06-26T10:13:11;8.73;;;4.30;;
18449;SDS011;9354;50.194;7.690;2023-06-26T10:18:11;6.25;;;3.58;;
18449;SDS011;9354;50.194;7.690;2023-06-26T10:20:41;10.18;;;4.15;;
18449;SDS011;9354;50.194;7.690;2023-06-26T10:23:12;8.57;;;3.85;;
18449;SDS011;9354;50.194;7.690;2023-06-26T10:25:42;7.95;;;4.28;;
18449;SDS011;9354;50.194;7.690;2023-06-26T10:28:12;4.63;;;3.38;;
18449;SDS011;9354;50.194;7.690;2023-06-26T10:30:41;7.55;;;3.88;;
18449;SDS011;9354;50.194;7.690;2023-06-26T10:33:10;6.50;;;3.55;;
18449;SDS011;9354;50.194;7.690;2023-06-26T10:35:46;9.05;;;4.15;;
18449;SDS011;9354;50.194;7.690;2023-06-26T10:38:15;9.23;;;4.20;;
18449;SDS011;9354;50.194;7.690;2023-06-26T10:40:44;6.00;;;3.85;;
18449;SDS011;9354;50.194;7.690;2023-06-26T10:43:14;9.88;;;4.15;;
18449;SDS011;9354;50.194;7.690;2023-06-26T10:45:44;8.70;;;4.05;;
18449;SDS011;9354;50.194;7.690;2023-06-26T10:48:17;7.63;;;4.13;;
18449;SDS011;9354;50.194;7.690;2023-06-26T10:50:48;8.00;;;4.03;;
18449;SDS011;9354;50.194;7.690;2023-06-26T10:53:16;7.57;;;3.80;;
18449;SDS011;9354;50.194;7.690;2023-06-26T10:55:55;8.25;;;4.50;;
18449;SDS011;9354;50.194;7.690;2023-06-26T10:58:26;8.98;;;4.00;;
18449;SDS011;9354;50.194;7.690;2023-06-26T11:03:41;7.72;;;4.28;;
18449;SDS011;9354;50.194;7.690;2023-06-26T11:06:11;9.75;;;4.40;;
18449;SDS011;9354;50.194;7.690;2023-06-26T11:08:46;7.82;;;4.20;;
18449;SDS011;9354;50.194;7.690;2023-06-26T11:11:14;6.93;;;3.90;;
18449;SDS011;9354;50.194;7.690;2023-06-26T11:13:42;8.98;;;4.20;;
18449;SDS011;9354;50.194;7.690;2023-06-26T11:16:11;5.60;;;3.95;;
18449;SDS011;9354;50.194;7.690;2023-06-26T11:18:40;7.25;;;4.10;;
18449;SDS011;9354;50.194;7.690;2023-06-26T11:21:07;6.85;;;3.85;;
18449;SDS011;9354;50.194;7.690;2023-06-26T11:23:37;7.55;;;4.05;;
18449;SDS011;9354;50.194;7.690;2023-06-26T11:26:15;10.27;;;3.58;;
18449;SDS011;9354;50.194;7.690;2023-06-26T11:28:50;6.75;;;3.78;;
18449;SDS011;9354;50.194;7.690;2023-06-26T11:31:24;8.07;;;3.55;;
18449;SDS011;9354;50.194;7.690;2023-06-26T11:33:52;8.10;;;3.70;;
18449;SDS011;9354;50.194;7.690;2023-06-26T11:36:22;6.43;;;3.10;;
18449;SDS011;9354;50.194;7.690;2023-06-26T11:38:55;8.35;;;3.80;;
18449;SDS011;9354;50.194;7.690;2023-06-26T11:41:23;9.38;;;3.10;;
18449;SDS011;9354;50.194;7.690;2023-06-26T11:43:53;9.23;;;3.03;;
18449;SDS011;9354;50.194;7.690;2023-06-26T11:46:21;7.80;;;3.17;;
18449;SDS011;9354;50.194;7.690;2023-06-26T11:48:49;5.43;;;2.92;;
18449;SDS011;9354;50.194;7.690;2023-06-26T11:51:16;10.02;;;3.70;;
18449;SDS011;9354;50.194;7.690;2023-06-26T11:53:46;8.52;;;3.20;;
18449;SDS011;9354;50.194;7.690;2023-06-26T11:56:15;9.45;;;3.00;;
18449;SDS011;9354;50.194;7.690;2023-06-26T11:58:56;8.77;;;3.47;;
18449;SDS011;9354;50.194;7.690;2023-06-26T12:01:26;5.70;;;3.00;;
18449;SDS011;9354;50.194;7.690;2023-06-26T12:03:57;9.25;;;3.00;;
18449;SDS011;9354;50.194;7.690;2023-06-26T12:06:26;6.47;;;2.70;;
18449;SDS011;9354;50.194;7.690;2023-06-26T12:08:54;9.27;;;3.92;;
18449;SDS011;9354;50.194;7.690;2023-06-26T12:11:25;4.43;;;2.42;;
18449;SDS011;9354;50.194;7.690;2023-06-26T12:13:55;4.15;;;3.00;;
18449;SDS011;9354;50.194;7.690;2023-06-26T12:16:23;7.82;;;2.80;;
18449;SDS011;9354;50.194;7.690;2023-06-26T12:18:50;8.57;;;2.92;;
18449;SDS011;9354;50.194;7.690;2023-06-26T12:24:17;7.85;;;2.60;;
18449;SDS011;9354;50.194;7.690;2023-06-26T12:26:47;9.80;;;2.70;;
18449;SDS011;9354;50.194;7.690;2023-06-26T12:29:19;7.30;;;2.75;;
18449;SDS011;9354;50.194;7.690;2023-06-26T12:31:51;5.32;;;2.30;;
18449;SDS011;9354;50.194;7.690;2023-06-26T12:34:19;7.88;;;2.45;;
18449;SDS011;9354;50.194;7.690;2023-06-26T12:36:50;6.28;;;2.42;;
18449;SDS011;9354;50.194;7.690;2023-06-26T12:39:18;6.47;;;2.15;;
18449;SDS011;9354;50.194;7.690;2023-06-26T12:41:49;5.55;;;2.50;;
18449;SDS011;9354;50.194;7.690;2023-06-26T12:44:19;11.05;;;2.40;;
18449;SDS011;9354;50.194;7.690;2023-06-26T12:46:47;7.35;;;2.03;;
18449;SDS011;9354;50.194;7.690;2023-06-26T12:49:15;7.05;;;2.15;;
18449;SDS011;9354;50.194;7.690;2023-06-26T12:51:43;7.78;;;1.98;;
18449;SDS011;9354;50.194;7.690;2023-06-26T12:54:10;7.13;;;1.80;;
18449;SDS011;9354;50.194;7.690;2023-06-26T12:56:38;7.28;;;1.95;;
18449;SDS011;9354;50.194;7.690;2023-06-26T12:59:06;5.50;;;1.63;;
18449;SDS011;9354;50.194;7.690;2023-06-26T13:01:34;4.00;;;1.75;;
18449;SDS011;9354;50.194;7.690;2023-06-26T13:04:01;6.60;;;1.92;;
18449;SDS011;9354;50.194;7.690;2023-06-26T13:06:29;6.50;;;2.00;;
18449;SDS011;9354;50.194;7.690;2023-06-26T13:08:57;3.90;;;1.70;;
18449;SDS011;9354;50.194;7.690;2023-06-26T13:11:25;6.18;;;1.80;;
18449;SDS011;9354;50.194;7.690;2023-06-26T13:13:52;3.60;;;1.88;;
18449;SDS011;9354;50.194;7.690;2023-06-26T13:16:21;2.80;;;1.45;;
18449;SDS011;9354;50.194;7.690;2023-06-26T13:18:48;5.70;;;1.95;;
18449;SDS011;9354;50.194;7.690;2023-06-26T13:21:15;5.25;;;2.08;;
18449;SDS011;9354;50.194;7.690;2023-06-26T13:23:43;4.38;;;1.63;;
18449;SDS011;9354;50.194;7.690;2023-06-26T13:26:11;9.68;;;1.65;;
18449;SDS011;9354;50.194;7.690;2023-06-26T13:28:38;6.35;;;1.85;;
18449;SDS011;9354;50.194;7.690;2023-06-26T13:31:06;6.05;;;1.77;;
18449;SDS011;9354;50.194;7.690;2023-06-26T13:33:35;4.88;;;1.60;;
18449;SDS011;9354;50.194;7.690;2023-06-26T13:36:02;5.88;;;1.83;;
18449;SDS011;9354;50.194;7.690;2023-06-26T13:38:32;5.22;;;1.50;;
18449;SDS011;9354;50.194;7.690;2023-06-26T13:41:00;6.30;;;1.60;;
18449;SDS011;9354;50.194;7.690;2023-06-26T13:43:28;5.78;;;1.63;;
18449;SDS011;9354;50.194;7.690;2023-06-26T13:45:56;4.57;;;1.52;;
18449;SDS011;9354;50.194;7.690;2023-06-26T13:48:23;9.32;;;1.60;;
18449;SDS011;9354;50.194;7.690;2023-06-26T13:50:53;3.90;;;1.30;;
18449;SDS011;9354;50.194;7.690;2023-06-26T13:53:20;7.88;;;2.00;;
18449;SDS011;9354;50.194;7.690;2023-06-26T13:55:47;5.10;;;1.55;;
18449;SDS011;9354;50.194;7.690;2023-06-26T13:58:15;5.38;;;1.50;;
18449;SDS011;9354;50.194;7.690;2023-06-26T14:00:42;4.03;;;1.40;;
18449;SDS011;9354;50.194;7.690;2023-06-26T14:03:10;2.58;;;1.50;;
18449;SDS011;9354;50.194;7.690;2023-06-26T14:05:38;8.68;;;1.73;;
18449;SDS011;9354;50.194;7.690;2023-06-26T14:08:07;3.65;;;1.23;;
18449;SDS011;9354;50.194;7.690;2023-06-26T14:10:36;10.40;;;1.25;;
18449;SDS011;9354;50.194;7.690;2023-06-26T14:13:04;4.95;;;1.50;;
18449;SDS011;9354;50.194;7.690;2023-06-26T14:15:32;9.35;;;1.73;;
18449;SDS011;9354;50.194;7.690;2023-06-26T14:18:01;9.48;;;1.50;;
18449;SDS011;9354;50.194;7.690;2023-06-26T14:20:29;15.30;;;1.73;;
18449;SDS011;9354;50.194;7.690;2023-06-26T14:22:58;5.18;;;1.42;;
18449;SDS011;9354;50.194;7.690;2023-06-26T14:25:27;4.35;;;1.60;;
18449;SDS011;9354;50.194;7.690;2023-06-26T14:27:55;9.97;;;2.00;;
18449;SDS011;9354;50.194;7.690;2023-06-26T14:30:22;7.80;;;1.73;;
18449;SDS011;9354;50.194;7.690;2023-06-26T14:32:50;4.40;;;1.48;;
18449;SDS011;9354;50.194;7.690;2023-06-26T14:35:17;6.33;;;1.50;;
18449;SDS011;9354;50.194;7.690;2023-06-26T14:37:44;15.20;;;1.93;;
18449;SDS011;9354;50.194;7.690;2023-06-26T14:40:12;3.13;;;1.47;;
18449;SDS011;9354;50.194;7.690;2023-06-26T14:42:41;5.43;;;1.40;;
18449;SDS011;9354;50.194;7.690;2023-06-26T14:45:11;7.97;;;1.45;;
18449;SDS011;9354;50.194;7.690;2023-06-26T14:47:39;13.85;;;1.60;;
18449;SDS011;9354;50.194;7.690;2023-06-26T14:50:07;11.35;;;1.70;;
18449;SDS011;9354;50.194;7.690;2023-06-26T14:52:35;2.60;;;1.50;;
18449;SDS011;9354;50.194;7.690;2023-06-26T14:55:03;9.10;;;1.50;;
18449;SDS011;9354;50.194;7.690;2023-06-26T14:57:31;10.70;;;1.60;;
18449;SDS011;9354;50.194;7.690;2023-06-26T15:00:00;3.93;;;1.50;;
18449;SDS011;9354;50.194;7.690;2023-06-26T15:02:28;7.63;;;1.67;;
18449;SDS011;9354;50.194;7.690;2023-06-26T15:04:56;6.90;;;1.60;;
18449;SDS011;9354;50.194;7.690;2023-06-26T15:07:23;4.57;;;1.30;;
18449;SDS011;9354;50.194;7.690;2023-06-26T15:09:50;5.63;;;1.30;;
18449;SDS011;9354;50.194;7.690;2023-06-26T15:12:18;6.90;;;1.60;;
18449;SDS011;9354;50.194;7.690;2023-06-26T15:14:45;6.90;;;1.80;;
18449;SDS011;9354;50.194;7.690;2023-06-26T15:17:14;5.97;;;1.50;;